createdAt,value
2022-12-06T00:02:15.530Z,2.35
2022-12-06T00:04:42.618Z,2.37
2022-12-06T00:07:11.778Z,2.39
2022-12-06T00:09:39.024Z,2.38
2022-12-06T00:12:06.187Z,2.39
2022-12-06T00:14:33.208Z,2.40
2022-12-06T00:17:00.300Z,2.41
2022-12-06T00:19:27.536Z,2.42
2022-12-06T00:21:54.949Z,2.35
2022-12-06T00:24:23.110Z,2.43
2022-12-06T00:26:51.299Z,2.44
2022-12-06T00:29:21.762Z,2.43
2022-12-06T00:31:49.541Z,2.39
2022-12-06T00:34:17.150Z,2.18
2022-12-06T00:36:44.270Z,2.40
2022-12-06T00:39:16.818Z,2.45
2022-12-06T00:41:44.524Z,2.45
2022-12-06T00:44:12.196Z,2.43
2022-12-06T00:46:39.627Z,2.39
2022-12-06T00:49:08.090Z,2.43
2022-12-06T00:51:35.977Z,2.44
2022-12-06T00:54:03.289Z,2.41
2022-12-06T00:56:30.653Z,2.45
2022-12-06T00:58:57.796Z,2.45
2022-12-06T01:01:27.517Z,2.44
2022-12-06T01:03:57.508Z,2.43
2022-12-06T01:06:28.303Z,2.42
2022-12-06T01:08:57.452Z,2.42
2022-12-06T01:11:25.908Z,2.43
2022-12-06T01:13:53.943Z,2.44
2022-12-06T01:16:24.444Z,2.41
2022-12-06T01:18:56.778Z,2.44
2022-12-06T01:21:25.076Z,2.44
2022-12-06T01:23:53.267Z,2.44
2022-12-06T01:26:29.423Z,2.42
2022-12-06T01:28:59.034Z,2.42
2022-12-06T01:31:29.685Z,2.41
2022-12-06T01:34:01.508Z,2.40
2022-12-06T01:36:28.589Z,2.44
2022-12-06T01:38:57.654Z,2.44
2022-12-06T01:41:26.729Z,2.44
2022-12-06T01:43:55.685Z,2.45
2022-12-06T01:46:43.374Z,2.45
2022-12-06T01:49:19.213Z,2.43
2022-12-06T01:52:00.189Z,2.41
2022-12-06T01:54:27.808Z,2.40
2022-12-06T01:56:57.237Z,2.43
2022-12-06T01:59:25.783Z,2.39
2022-12-06T02:01:53.471Z,2.39
2022-12-06T02:04:21.748Z,2.39
2022-12-06T02:06:50.641Z,2.41
2022-12-06T02:09:18.750Z,2.41
2022-12-06T02:11:47.564Z,2.42
2022-12-06T02:14:20.303Z,2.44
2022-12-06T02:17:01.373Z,2.48
2022-12-06T02:19:43.488Z,2.47
2022-12-06T02:22:23.374Z,2.46
2022-12-06T02:24:50.349Z,2.47
2022-12-06T02:27:49.577Z,2.48
2022-12-06T02:30:28.756Z,2.51
2022-12-06T02:33:08.453Z,2.53
2022-12-06T02:35:39.337Z,2.54
2022-12-06T02:38:18.778Z,2.56
2022-12-06T02:40:50.689Z,2.55
2022-12-06T02:43:24.377Z,2.57
2022-12-06T02:45:57.318Z,2.58
2022-12-06T02:48:26.674Z,2.56
2022-12-06T02:51:04.880Z,2.58
2022-12-06T02:53:34.359Z,2.53
2022-12-06T02:56:02.348Z,2.54
2022-12-06T02:58:34.091Z,2.57
2022-12-06T03:01:03.135Z,2.61
2022-12-06T03:03:46.693Z,2.61
2022-12-06T03:06:22.958Z,2.63
2022-12-06T03:09:05.282Z,2.62
2022-12-06T03:12:18.193Z,2.57
2022-12-06T03:14:56.169Z,2.61
2022-12-06T03:17:40.029Z,2.62
2022-12-06T03:20:52.077Z,2.62
2022-12-06T03:23:26.311Z,2.61
2022-12-06T03:25:59.977Z,2.59
2022-12-06T03:28:29.100Z,2.59
2022-12-06T03:31:02.687Z,2.61
2022-12-06T03:33:32.436Z,2.62
2022-12-06T03:36:00.622Z,2.62
2022-12-06T03:38:54.143Z,2.58
2022-12-06T03:41:25.897Z,2.58
2022-12-06T03:43:53.495Z,2.62
2022-12-06T03:46:44.530Z,2.63
2022-12-06T03:49:17.658Z,2.62
2022-12-06T03:51:45.532Z,2.63
2022-12-06T03:54:13.157Z,2.62
2022-12-06T03:56:40.199Z,2.63
2022-12-06T03:59:11.426Z,2.63
2022-12-06T04:01:39.409Z,2.63
2022-12-06T04:04:06.815Z,2.63
2022-12-06T04:06:33.864Z,2.61
2022-12-06T04:09:19.564Z,2.61
2022-12-06T04:11:47.198Z,2.60
2022-12-06T04:14:14.239Z,2.62
2022-12-06T04:16:59.762Z,2.61
2022-12-06T04:19:26.884Z,2.63
2022-12-06T04:22:12.608Z,2.64
2022-12-06T04:24:39.848Z,2.61
2022-12-06T04:27:25.728Z,2.67
2022-12-06T04:30:11.257Z,2.70
2022-12-06T04:32:57.049Z,2.66
2022-12-06T04:35:42.530Z,2.73
2022-12-06T04:38:28.228Z,2.74
2022-12-06T04:40:55.273Z,2.70
2022-12-06T04:43:41.051Z,2.72
2022-12-06T04:46:09.244Z,2.77
2022-12-06T04:48:36.478Z,2.77
2022-12-06T04:51:03.788Z,2.75
2022-12-06T04:53:31.075Z,2.78
2022-12-06T04:55:58.467Z,2.79
2022-12-06T04:58:25.512Z,2.79
2022-12-06T05:00:54.940Z,2.80
2022-12-06T05:03:22.079Z,2.80
2022-12-06T05:05:49.914Z,2.80
2022-12-06T05:08:16.972Z,2.80
2022-12-06T05:10:48.457Z,2.81
2022-12-06T05:13:17.620Z,2.78
2022-12-06T05:15:52.733Z,2.78
2022-12-06T05:18:20.140Z,2.84
2022-12-06T05:20:47.548Z,2.86
2022-12-06T05:23:14.992Z,2.84
2022-12-06T05:25:42.063Z,2.88
2022-12-06T05:28:09.428Z,2.88
2022-12-06T05:30:36.497Z,2.83
2022-12-06T05:33:03.533Z,2.83
2022-12-06T05:35:30.581Z,2.86
2022-12-06T05:37:57.558Z,2.86
2022-12-06T05:40:24.631Z,2.87
2022-12-06T05:42:51.760Z,2.88
2022-12-06T05:45:19.506Z,2.89
2022-12-06T05:47:46.559Z,2.89
2022-12-06T05:50:13.788Z,2.90
2022-12-06T05:52:41.276Z,2.89
2022-12-06T05:55:08.671Z,2.89
2022-12-06T05:57:35.757Z,2.84
2022-12-06T06:00:04.761Z,2.86
2022-12-06T06:02:33.657Z,2.88
2022-12-06T06:05:00.781Z,2.89
2022-12-06T06:07:27.879Z,2.87
2022-12-06T06:09:54.977Z,2.89
2022-12-06T06:12:22.064Z,2.90
2022-12-06T06:14:50.019Z,2.90
2022-12-06T06:17:17.342Z,2.91
2022-12-06T06:19:47.578Z,2.93
2022-12-06T06:22:23.286Z,2.73
2022-12-06T06:24:51.763Z,2.94
2022-12-06T06:27:18.908Z,2.96
2022-12-06T06:29:45.972Z,2.97
2022-12-06T06:32:13.943Z,2.98
2022-12-06T06:34:41.030Z,2.98
2022-12-06T06:37:08.025Z,2.99
2022-12-06T06:39:35.067Z,2.99
2022-12-06T06:42:02.178Z,2.99
2022-12-06T06:44:29.303Z,3.01
2022-12-06T06:46:56.315Z,2.95
2022-12-06T06:49:23.390Z,3.01
2022-12-06T06:51:50.990Z,3.02
2022-12-06T06:54:18.488Z,3.01
2022-12-06T06:56:45.545Z,3.01
2022-12-06T06:59:12.517Z,3.00
2022-12-06T07:01:39.675Z,3.01
2022-12-06T07:04:06.717Z,3.03
2022-12-06T07:06:33.684Z,3.04
2022-12-06T07:09:00.721Z,3.03
2022-12-06T07:11:27.741Z,3.06
2022-12-06T07:13:54.808Z,3.03
2022-12-06T07:16:21.963Z,3.05
2022-12-06T07:18:49.211Z,3.04
2022-12-06T07:21:17.330Z,3.01
2022-12-06T07:23:44.474Z,3.03
2022-12-06T07:26:15.286Z,3.04
2022-12-06T07:28:44.828Z,3.07
2022-12-06T07:31:23.468Z,3.07
2022-12-06T07:33:55.752Z,3.09
2022-12-06T07:36:23.874Z,3.11
2022-12-06T07:38:55.877Z,3.12
2022-12-06T07:41:43.784Z,3.14
2022-12-06T07:44:38.785Z,3.10
2022-12-06T07:47:05.845Z,3.13
2022-12-06T07:49:32.908Z,3.11
2022-12-06T07:52:00.591Z,3.12
2022-12-06T07:54:27.641Z,3.11
2022-12-06T07:56:56.490Z,3.09
2022-12-06T07:59:24.915Z,3.15
2022-12-06T08:01:52.910Z,3.17
2022-12-06T08:04:20.750Z,3.17
2022-12-06T08:06:47.810Z,3.17
2022-12-06T08:09:15.086Z,3.20
2022-12-06T08:11:42.166Z,3.22
2022-12-06T08:14:11.338Z,3.22
2022-12-06T08:16:41.385Z,3.24
2022-12-06T08:19:08.912Z,3.22
2022-12-06T08:21:35.903Z,3.24
2022-12-06T08:24:04.313Z,3.24
2022-12-06T08:26:31.379Z,3.23
2022-12-06T08:29:00.804Z,3.25
2022-12-06T08:31:27.936Z,3.24
2022-12-06T08:33:54.931Z,3.22
2022-12-06T08:36:23.919Z,3.23
2022-12-06T08:38:52.307Z,3.27
2022-12-06T08:41:53.230Z,3.26
2022-12-06T08:44:20.467Z,3.25
2022-12-06T08:46:48.042Z,3.22
2022-12-06T08:49:16.835Z,3.26
2022-12-06T08:51:44.607Z,3.27
2022-12-06T08:54:14.880Z,3.24
2022-12-06T08:56:41.949Z,3.20
2022-12-06T08:59:09.360Z,3.21
2022-12-06T09:01:43.408Z,3.21
2022-12-06T09:04:12.818Z,3.22
2022-12-06T09:06:42.177Z,3.23
2022-12-06T09:09:10.461Z,3.24
2022-12-06T09:11:38.490Z,3.23
2022-12-06T09:14:07.436Z,3.27
2022-12-06T09:16:34.602Z,3.27
2022-12-06T09:19:01.679Z,3.27
2022-12-06T09:21:30.754Z,3.26
2022-12-06T09:23:59.317Z,3.22
2022-12-06T09:26:27.742Z,3.25
2022-12-06T09:28:56.992Z,3.27
2022-12-06T09:31:25.214Z,3.26
2022-12-06T09:33:52.983Z,3.27
2022-12-06T09:36:25.897Z,3.26
2022-12-06T09:39:11.299Z,3.27
2022-12-06T09:41:56.369Z,3.28
2022-12-06T09:45:01.659Z,3.26
2022-12-06T09:47:34.698Z,3.27
2022-12-06T09:50:32.859Z,3.27
2022-12-06T09:53:23.201Z,3.28
2022-12-06T09:55:55.985Z,3.27
2022-12-06T09:58:31.729Z,3.27
2022-12-06T10:01:07.722Z,3.28
2022-12-06T10:04:22.847Z,3.28
2022-12-06T10:06:49.821Z,3.29
2022-12-06T10:10:03.671Z,3.30
2022-12-06T10:12:57.958Z,3.31
2022-12-06T10:15:40.523Z,3.31
2022-12-06T10:18:40.122Z,3.36
2022-12-06T10:21:18.353Z,3.36
2022-12-06T10:24:08.532Z,3.37
2022-12-06T10:26:51.667Z,3.41
2022-12-06T10:29:40.667Z,3.43
2022-12-06T10:32:26.074Z,3.45
2022-12-06T10:34:56.848Z,3.45
2022-12-06T10:37:44.875Z,3.48
2022-12-06T10:44:13.508Z,3.51
2022-12-06T10:47:03.934Z,3.49
2022-12-06T10:49:39.828Z,3.54
2022-12-06T10:52:30.155Z,3.53
2022-12-06T10:55:02.704Z,3.52
2022-12-06T10:57:43.210Z,3.53
2022-12-06T11:00:20.807Z,3.55
2022-12-06T11:03:00.580Z,3.57
2022-12-06T11:05:34.732Z,3.58
2022-12-06T11:08:17.931Z,3.57
2022-12-06T11:10:46.679Z,3.60
2022-12-06T11:13:13.635Z,3.61
2022-12-06T11:15:49.150Z,3.62
2022-12-06T11:18:17.903Z,3.63
2022-12-06T11:20:53.729Z,3.64
2022-12-06T11:23:50.999Z,3.62
2022-12-06T11:26:31.109Z,3.65
2022-12-06T11:29:06.094Z,3.61
2022-12-06T11:31:36.865Z,3.63
2022-12-06T11:34:06.582Z,3.62
2022-12-06T11:36:33.830Z,3.45
2022-12-06T11:39:01.208Z,3.64
2022-12-06T11:41:33.763Z,3.64
2022-12-06T11:44:01.008Z,3.52
2022-12-06T11:46:29.233Z,3.60
2022-12-06T11:49:04.018Z,3.60
2022-12-06T11:51:31.121Z,3.58
2022-12-06T11:54:04.434Z,3.60
2022-12-06T11:56:39.363Z,3.57
2022-12-06T11:59:20.739Z,3.59
2022-12-06T12:01:52.354Z,3.57
2022-12-06T12:04:49.750Z,3.60
2022-12-06T12:07:19.188Z,3.62
2022-12-06T12:09:50.920Z,3.63
2022-12-06T12:13:01.267Z,3.64
2022-12-06T12:15:28.373Z,3.60
2022-12-06T12:17:58.873Z,3.63
2022-12-06T12:20:28.848Z,3.64
2022-12-06T12:23:05.270Z,3.64
2022-12-06T12:25:34.922Z,3.64
2022-12-06T12:28:03.616Z,3.63
2022-12-06T12:30:39.279Z,3.63
2022-12-06T12:33:06.299Z,3.64
2022-12-06T12:35:44.987Z,3.63
2022-12-06T12:38:11.955Z,3.64
2022-12-06T12:40:42.611Z,3.64
2022-12-06T12:43:12.381Z,3.65
2022-12-06T12:46:02.776Z,3.64
2022-12-06T12:48:30.315Z,3.63
2022-12-06T12:51:06.488Z,3.64
2022-12-06T12:53:38.479Z,3.62
2022-12-06T12:56:20.910Z,3.62
2022-12-06T12:58:51.497Z,3.60
2022-12-06T13:01:24.374Z,3.60
2022-12-06T13:04:18.957Z,3.59
2022-12-06T13:06:58.427Z,3.59
2022-12-06T13:09:28.288Z,3.61
2022-12-06T13:12:02.609Z,3.54
2022-12-06T13:14:30.589Z,3.62
2022-12-06T13:17:01.052Z,3.63
2022-12-06T13:19:36.939Z,3.59
2022-12-06T13:22:06.610Z,3.62
2022-12-06T13:24:36.647Z,3.63
2022-12-06T13:27:17.946Z,3.60
2022-12-06T13:29:58.902Z,3.54
2022-12-06T13:32:53.254Z,3.59
2022-12-06T13:35:22.982Z,3.57
2022-12-06T13:38:26.135Z,3.58
2022-12-06T13:40:55.527Z,3.56
2022-12-06T13:43:25.317Z,3.57
2022-12-06T13:46:12.644Z,3.55
2022-12-06T13:48:55.371Z,3.55
2022-12-06T13:51:31.259Z,3.54
2022-12-06T13:54:07.206Z,3.54
2022-12-06T13:56:34.202Z,3.53
2022-12-06T13:59:05.130Z,3.52
2022-12-06T14:01:44.848Z,3.52
2022-12-06T14:04:24.155Z,3.52
2022-12-06T14:09:50.245Z,3.49
2022-12-06T14:12:21.430Z,3.50
2022-12-06T14:14:56.922Z,3.51
2022-12-06T14:17:59.320Z,3.50
2022-12-06T14:20:26.203Z,3.49
2022-12-06T14:22:53.353Z,3.50
2022-12-06T14:25:22.082Z,3.50
2022-12-06T14:27:52.927Z,3.50
2022-12-06T14:30:26.339Z,3.47
2022-12-06T14:32:55.962Z,3.50
2022-12-06T14:35:30.190Z,3.48
2022-12-06T14:38:02.978Z,3.42
2022-12-06T14:40:59.446Z,3.43
2022-12-06T14:43:29.701Z,3.39
2022-12-06T14:45:59.002Z,3.43
2022-12-06T14:48:26.299Z,3.39
2022-12-06T14:50:59.561Z,3.44
2022-12-06T14:53:31.259Z,3.43
2022-12-06T14:56:23.046Z,3.44
2022-12-06T14:58:50.148Z,3.43
2022-12-06T15:01:21.448Z,3.41
2022-12-06T15:04:09.094Z,3.42
2022-12-06T15:06:38.099Z,3.43
2022-12-06T15:09:13.408Z,3.43
2022-12-06T15:12:01.964Z,3.44
2022-12-06T15:14:46.990Z,3.41
2022-12-06T15:17:14.009Z,3.41
2022-12-06T15:19:47.499Z,3.43
2022-12-06T15:22:25.271Z,3.43
2022-12-06T15:24:57.946Z,3.38
2022-12-06T15:27:27.189Z,3.39
2022-12-06T15:29:54.650Z,3.41
2022-12-06T15:32:24.089Z,3.40
2022-12-06T15:34:51.119Z,3.43
2022-12-06T15:40:05.917Z,3.43
2022-12-06T15:42:33.002Z,3.42
2022-12-06T15:45:00.283Z,3.36
2022-12-06T15:47:27.480Z,3.42
2022-12-06T15:49:58.410Z,3.42
2022-12-06T15:52:26.947Z,3.41
2022-12-06T15:54:54.127Z,3.41
2022-12-06T15:57:21.172Z,3.33
2022-12-06T15:59:48.199Z,3.40
2022-12-06T16:02:17.299Z,3.42
2022-12-06T16:04:45.543Z,3.41
2022-12-06T16:07:19.131Z,3.42
2022-12-06T16:09:47.098Z,3.39
2022-12-06T16:12:14.077Z,3.36
2022-12-06T16:14:41.248Z,3.22
2022-12-06T16:17:08.768Z,3.36
2022-12-06T16:19:54.170Z,3.38
2022-12-06T16:22:41.132Z,3.37
2022-12-06T16:25:08.556Z,3.34
2022-12-06T16:27:35.719Z,3.36
2022-12-06T16:30:04.935Z,3.38
2022-12-06T16:32:31.979Z,3.35
2022-12-06T16:34:59.243Z,3.36
2022-12-06T16:37:26.627Z,3.35
2022-12-06T16:39:53.626Z,3.35
2022-12-06T16:42:20.645Z,3.35
2022-12-06T16:44:53.716Z,3.33
2022-12-06T16:49:49.810Z,3.25
2022-12-06T16:52:17.499Z,3.34
2022-12-06T16:54:44.587Z,3.35
2022-12-06T16:57:12.878Z,3.32
2022-12-06T16:59:40.737Z,3.36
2022-12-06T17:02:26.728Z,3.34
2022-12-06T17:04:54.839Z,3.33
2022-12-06T17:07:21.957Z,3.30
2022-12-06T17:09:49.166Z,3.33
2022-12-06T17:12:16.273Z,3.33
2022-12-06T17:14:43.728Z,3.32
2022-12-06T17:17:15.849Z,3.32
2022-12-06T17:19:43.630Z,3.33
2022-12-06T17:22:12.338Z,3.31
2022-12-06T17:24:39.730Z,3.31
2022-12-06T17:27:09.199Z,3.26
2022-12-06T17:29:36.887Z,3.29
2022-12-06T17:32:04.039Z,3.24
2022-12-06T17:34:31.411Z,3.24
2022-12-06T17:36:59.151Z,3.28
2022-12-06T17:39:26.689Z,3.29
2022-12-06T17:42:12.339Z,3.28
2022-12-06T17:44:40.187Z,3.25
2022-12-06T17:47:07.522Z,3.24
2022-12-06T17:49:36.331Z,3.24
2022-12-06T17:52:03.574Z,3.21
2022-12-06T17:54:30.726Z,3.16
2022-12-06T17:56:57.836Z,3.20
2022-12-06T17:59:28.079Z,3.21
2022-12-06T18:02:19.378Z,3.17
2022-12-06T18:04:47.716Z,3.16
2022-12-06T18:07:15.738Z,3.14
2022-12-06T18:09:42.870Z,3.15
2022-12-06T18:12:11.812Z,3.17
2022-12-06T18:14:38.870Z,3.16
2022-12-06T18:17:05.918Z,3.14
2022-12-06T18:19:33.670Z,3.14
2022-12-06T18:22:00.728Z,3.11
2022-12-06T18:24:33.467Z,3.13
2022-12-06T18:27:02.598Z,3.11
2022-12-06T18:29:29.770Z,3.09
2022-12-06T18:31:57.418Z,3.09
2022-12-06T18:34:24.897Z,3.08
2022-12-06T18:36:52.327Z,3.04
2022-12-06T18:39:24.827Z,3.09
2022-12-06T18:41:54.086Z,3.06
2022-12-06T18:44:21.746Z,3.06
2022-12-06T18:46:48.826Z,3.04
2022-12-06T18:49:15.960Z,3.07
2022-12-06T18:51:43.028Z,3.07
2022-12-06T18:54:14.024Z,3.04
2022-12-06T18:56:42.018Z,3.01
2022-12-06T18:59:10.830Z,3.02
2022-12-06T19:01:39.686Z,3.04
2022-12-06T19:04:08.389Z,3.02
2022-12-06T19:06:37.899Z,3.00
2022-12-06T19:09:07.785Z,3.00
2022-12-06T19:11:39.558Z,3.01
2022-12-06T19:14:07.119Z,3.01
2022-12-06T19:16:40.568Z,3.01
2022-12-06T19:19:15.743Z,2.98
2022-12-06T19:21:45.081Z,2.97
2022-12-06T19:24:14.062Z,2.98
2022-12-06T19:26:41.158Z,2.96
2022-12-06T19:29:08.492Z,2.95
2022-12-06T19:31:36.091Z,2.92
2022-12-06T19:34:03.419Z,2.96
2022-12-06T19:36:31.848Z,2.89
2022-12-06T19:39:01.198Z,2.88
2022-12-06T19:41:28.922Z,2.88
2022-12-06T19:44:14.887Z,2.87
2022-12-06T19:46:43.399Z,2.88
2022-12-06T19:49:11.669Z,2.88
2022-12-06T19:51:41.699Z,2.91
2022-12-06T19:54:10.609Z,2.88
2022-12-06T19:56:39.027Z,2.89
2022-12-06T19:59:11.893Z,2.90
2022-12-06T20:01:48.970Z,2.92
2022-12-06T20:04:22.235Z,2.92
2022-12-06T20:06:50.460Z,2.93
2022-12-06T20:09:18.918Z,2.91
2022-12-06T20:12:02.640Z,2.87
2022-12-06T20:14:33.163Z,2.90
2022-12-06T20:17:00.220Z,2.84
2022-12-06T20:19:27.368Z,2.84
2022-12-06T20:21:54.461Z,2.84
2022-12-06T20:24:22.477Z,2.83
2022-12-06T20:26:51.742Z,2.78
2022-12-06T20:29:19.971Z,2.77
2022-12-06T20:31:50.365Z,2.76
2022-12-06T20:34:18.291Z,2.73
2022-12-06T20:36:45.428Z,2.74
2022-12-06T20:39:35.496Z,2.68
2022-12-06T20:42:03.668Z,2.67
2022-12-06T20:44:31.048Z,2.65
2022-12-06T20:46:58.297Z,2.68
2022-12-06T20:49:28.332Z,2.54
2022-12-06T20:51:55.708Z,2.66
2022-12-06T20:54:22.790Z,2.58
2022-12-06T20:56:53.667Z,2.61
2022-12-06T20:59:21.343Z,2.58
2022-12-06T21:01:48.581Z,2.54
2022-12-06T21:04:16.112Z,2.56
2022-12-06T21:06:43.342Z,2.55
2022-12-06T21:09:10.490Z,2.54
2022-12-06T21:11:37.862Z,2.50
2022-12-06T21:14:06.082Z,2.53
2022-12-06T21:16:35.191Z,2.50
2022-12-06T21:19:08.275Z,2.49
2022-12-06T21:21:38.098Z,2.51
2022-12-06T21:24:07.932Z,2.47
2022-12-06T21:26:35.402Z,2.49
2022-12-06T21:29:02.669Z,2.42
2022-12-06T21:31:32.198Z,2.50
2022-12-06T21:33:59.428Z,2.47
2022-12-06T21:36:26.622Z,2.51
2022-12-06T21:38:54.073Z,2.49
2022-12-06T21:41:22.410Z,2.51
2022-12-06T21:43:50.046Z,2.49
2022-12-06T21:46:20.466Z,2.46
2022-12-06T21:48:51.932Z,2.47
2022-12-06T21:51:20.108Z,2.47
2022-12-06T21:53:47.613Z,2.44
2022-12-06T21:56:18.303Z,2.42
2022-12-06T21:58:46.201Z,2.40
2022-12-06T22:01:15.987Z,2.38
2022-12-06T22:03:43.727Z,2.33
2022-12-06T22:06:12.479Z,2.32
2022-12-06T22:08:41.172Z,2.31
2022-12-06T22:11:19.446Z,2.31
2022-12-06T22:13:48.329Z,2.31
2022-12-06T22:16:16.358Z,2.25
2022-12-06T22:18:45.769Z,2.21
2022-12-06T22:21:16.831Z,2.17
2022-12-06T22:23:44.698Z,2.16
2022-12-06T22:26:15.460Z,2.13
2022-12-06T22:28:42.587Z,2.13
2022-12-06T22:31:12.507Z,2.11
2022-12-06T22:33:40.330Z,2.06
2022-12-06T22:36:08.818Z,2.13
2022-12-06T22:38:36.249Z,2.11
2022-12-06T22:41:04.005Z,2.08
2022-12-06T22:43:31.459Z,2.08
2022-12-06T22:46:11.350Z,2.08
2022-12-06T22:48:39.218Z,2.08
2022-12-06T22:51:18.072Z,2.08
2022-12-06T22:53:47.789Z,2.08
2022-12-06T22:56:15.821Z,2.05
2022-12-06T22:58:42.897Z,2.05
2022-12-06T23:01:16.963Z,2.03
2022-12-06T23:03:49.102Z,2.06
2022-12-06T23:06:18.158Z,2.07
2022-12-06T23:08:45.990Z,2.08
2022-12-06T23:11:22.026Z,2.07
2022-12-06T23:13:49.092Z,2.05
2022-12-06T23:16:21.327Z,2.11
2022-12-06T23:18:48.808Z,2.08
2022-12-06T23:21:21.547Z,2.11
2022-12-06T23:23:55.003Z,2.09
2022-12-06T23:26:25.361Z,2.07
2022-12-06T23:28:52.800Z,2.09
2022-12-06T23:31:25.458Z,2.08
2022-12-06T23:34:01.359Z,2.06
2022-12-06T23:36:30.647Z,1.96
2022-12-06T23:38:58.083Z,2.07
2022-12-06T23:41:27.506Z,2.11
2022-12-06T23:43:55.728Z,2.11
2022-12-06T23:46:25.642Z,2.13
2022-12-06T23:48:53.417Z,2.17
2022-12-06T23:51:25.889Z,2.16
2022-12-06T23:53:57.624Z,2.24
2022-12-06T23:56:29.151Z,2.22
2022-12-06T23:58:57.152Z,2.24
